Time;durP1;ratioP1;P1;durP2;ratioP2;P2;SDS_P1;SDS_P2;PMS_P1;PMS_P2;Temp;Humidity;BMP_temperature;BMP_pressure;BME280_temperature;BME280_humidity;BME280_pressure;Samples;Min_cycle;Max_cycle;Signal;HPM_P1;HPM_P2
2023/07/18 00:03:15;;;;;;;2.95;1.33;;;;;;;-145.68;71.17;74053.50;10330612;28;20301;-68
2023/07/18 00:08:15;;;;;;;10.70;1.48;;;;;;;-145.68;71.25;74039.50;10330542;28;20656;-68
2023/07/18 00:13:16;;;;;;;1.30;1.20;;;;;;;-145.68;71.30;74019.50;10312711;28;20248;-69
2023/07/18 00:18:16;;;;;;;1.40;1.20;;;;;;;-145.68;70.23;74003.53;10330442;28;20198;-69
2023/07/18 00:23:16;;;;;;;1.75;1.30;;;;;;;-145.68;69.88;74001.53;10329845;28;20217;-68
2023/07/18 00:28:17;;;;;;;2.78;1.50;;;;;;;-145.68;67.95;73979.53;10330224;28;20210;-68
2023/07/18 00:33:17;;;;;;;2.45;1.38;;;;;;;-145.68;67.36;73963.53;10330976;28;20244;-68
2023/07/18 00:38:20;;;;;;;3.92;1.55;;;;;;;-145.68;67.77;73953.53;10320710;28;20198;-68
2023/07/18 00:43:20;;;;;;;1.30;1.20;;;;;;;-145.68;67.14;73953.53;10320436;28;20230;-68
2023/07/18 00:48:21;;;;;;;4.30;1.55;;;;;;;-145.68;67.34;73989.53;10320134;28;20684;-68
2023/07/18 00:53:22;;;;;;;2.35;1.38;;;;;;;-145.68;67.70;73971.53;10320026;28;20634;-68
2023/07/18 00:58:23;;;;;;;2.95;1.35;;;;;;;-145.68;68.42;73999.53;10337396;28;20190;-68
2023/07/18 01:03:23;;;;;;;3.03;1.85;;;;;;;-145.68;69.49;74035.50;10303224;28;20225;-69
2023/07/18 01:08:24;;;;;;;2.50;1.38;;;;;;;-145.68;70.54;74025.50;10336972;28;20197;-69
2023/07/18 01:13:24;;;;;;;2.60;1.30;;;;;;;-145.68;71.69;74047.50;10336719;28;20289;-69
2023/07/18 01:18:24;;;;;;;4.30;1.42;;;;;;;-145.68;71.65;74051.50;10336779;28;20269;-69
2023/07/18 01:23:25;;;;;;;3.60;1.65;;;;;;;-145.68;73.28;74083.47;10318485;28;20672;-69
2023/07/18 01:28:25;;;;;;;2.83;1.50;;;;;;;-145.68;74.07;74093.47;10336411;28;20202;-68
2023/07/18 01:33:29;;;;;;;2.75;1.73;;;;;;;-145.68;75.76;74117.47;10318532;28;20675;-68
2023/07/18 01:38:29;;;;;;;2.05;1.50;;;;;;;-145.68;76.39;74115.47;10335908;28;20218;-68
2023/07/18 01:43:30;;;;;;;2.75;1.40;;;;;;;-145.68;76.27;74119.47;10335562;28;20759;-68
2023/07/18 01:48:30;;;;;;;2.17;1.40;;;;;;;-145.68;77.32;74131.47;10334759;28;20564;-68
2023/07/18 01:53:30;;;;;;;4.63;1.60;;;;;;;-145.68;77.71;74145.47;10317286;28;20237;-68
2023/07/18 01:58:31;;;;;;;6.65;1.95;;;;;;;-145.68;79.71;74159.44;10366958;28;20253;-68
2023/07/18 02:03:31;;;;;;;2.33;1.70;;;;;;;-145.68;80.90;74175.44;10357149;28;20229;-68
2023/07/18 02:08:32;;;;;;;3.03;1.40;;;;;;;-145.68;81.95;74193.44;10374798;28;20201;-68
2023/07/18 02:13:33;;;;;;;1.50;1.40;;;;;;;-145.68;82.73;74199.44;10374943;28;20666;-68
2023/07/18 02:18:34;;;;;;;5.22;1.63;;;;;;;-145.68;81.88;74203.44;10357340;28;20283;-68
2023/07/18 02:23:34;;;;;;;2.47;1.27;;;;;;;-145.68;81.63;74193.44;10374522;28;20231;-68
2023/07/18 02:28:34;;;;;;;1.50;1.15;;;;;;;-145.68;82.07;74215.44;10374408;28;20652;-68
2023/07/18 02:33:35;;;;;;;2.45;1.42;;;;;;;-145.68;82.30;74211.44;10374175;28;20676;-68
2023/07/18 02:38:36;;;;;;;3.50;1.50;;;;;;;-145.68;84.05;74231.41;10374161;28;20208;-68
2023/07/18 02:43:36;;;;;;;1.83;1.45;;;;;;;-145.68;85.24;74241.41;10373566;28;20663;-68
2023/07/18 02:48:38;;;;;;;3.40;1.40;;;;;;;-145.68;85.74;74251.41;10373898;28;20276;-68
2023/07/18 02:53:39;;;;;;;3.38;1.60;;;;;;;-145.68;85.75;74249.41;10373112;28;20319;-68
2023/07/18 02:58:41;;;;;;;1.73;1.60;;;;;;;-145.68;85.72;74253.41;10372396;28;20193;-68
2023/07/18 03:03:41;;;;;;;1.50;1.40;;;;;;;-145.68;85.86;74267.41;10372553;28;20373;-68
2023/07/18 03:08:42;;;;;;;3.80;1.13;;;;;;;-145.68;87.76;74287.41;10372999;28;20727;-68
2023/07/18 03:13:42;;;;;;;2.00;1.50;;;;;;;-145.68;88.35;74293.41;10355316;28;20563;-68
2023/07/18 03:18:42;;;;;;;2.88;2.00;;;;;;;-145.68;87.99;74289.41;10354943;28;20201;-69
2023/07/18 03:23:43;;;;;;;2.95;1.50;;;;;;;-145.68;87.22;74291.41;10372436;28;20220;-68
2023/07/18 03:28:43;;;;;;;2.93;1.40;;;;;;;-145.68;86.24;74283.41;10372242;28;20197;-68
2023/07/18 03:33:43;;;;;;;4.07;1.50;;;;;;;-145.68;86.37;74287.41;10372156;28;20244;-69
2023/07/18 03:38:44;;;;;;;3.13;1.50;;;;;;;-145.68;86.40;74289.41;10371643;28;20204;-68
2023/07/18 03:43:44;;;;;;;2.50;1.77;;;;;;;-145.68;86.71;74289.41;10371426;28;20229;-68
2023/07/18 03:48:45;;;;;;;1.67;1.47;;;;;;;-145.68;86.85;74295.41;10371868;28;20205;-69
2023/07/18 03:53:45;;;;;;;3.67;1.67;;;;;;;-145.68;86.14;74285.41;10370931;28;20320;-68
2023/07/18 03:58:46;;;;;;;2.73;1.83;;;;;;;-145.68;85.69;74283.41;10371672;28;20194;-68
2023/07/18 04:03:46;;;;;;;3.10;1.52;;;;;;;-145.68;85.02;74285.41;10370885;28;20224;-68
2023/07/18 04:08:46;;;;;;;3.70;2.10;;;;;;;-145.68;85.88;74297.41;10371026;28;20203;-68
2023/07/18 04:13:47;;;;;;;1.70;1.60;;;;;;;-145.68;86.86;74291.41;10371136;28;20216;-68
2023/07/18 04:18:47;;;;;;;3.43;1.67;;;;;;;-145.68;86.01;74279.41;10370766;28;20193;-68
2023/07/18 04:23:48;;;;;;;6.30;1.83;;;;;;;-145.68;85.61;74263.41;10370882;28;20319;-69
2023/07/18 04:28:48;;;;;;;2.08;1.60;;;;;;;-145.68;82.70;74225.41;10370689;28;20190;-69
2023/07/18 04:33:49;;;;;;;3.67;1.40;;;;;;;-145.68;80.41;74209.44;10370784;28;20223;-68
2023/07/18 04:38:49;;;;;;;2.67;1.63;;;;;;;-145.68;80.24;74173.44;10376042;28;20203;-69
2023/07/18 04:43:49;;;;;;;4.35;1.33;;;;;;;-145.68;79.09;74167.44;10394748;28;20221;-69
2023/07/18 04:48:50;;;;;;;2.63;1.83;;;;;;;-145.68;77.73;74135.47;10399393;28;20204;-69
2023/07/18 04:53:50;;;;;;;4.57;1.70;;;;;;;-145.68;76.72;74129.47;10414372;22;20319;-64
2023/07/18 04:58:50;;;;;;;2.60;1.80;;;;;;;-145.68;75.63;74109.47;10408540;28;20558;-65
2023/07/18 05:03:51;;;;;;;3.55;1.60;;;;;;;-145.68;74.07;74083.47;10409914;28;20220;-65
2023/07/18 05:08:52;;;;;;;1.50;1.30;;;;;;;-145.68;71.91;74053.50;10410635;28;20188;-65
2023/07/18 05:13:52;;;;;;;3.60;1.60;;;;;;;-145.68;70.61;74019.50;10410451;28;20213;-65
2023/07/18 05:18:52;;;;;;;4.47;1.80;;;;;;;-145.68;68.64;73991.53;10410526;28;20227;-64
2023/07/18 05:23:53;;;;;;;2.80;1.77;;;;;;;-145.68;67.07;73961.53;10396192;28;20213;-66
2023/07/18 05:28:53;;;;;;;4.13;1.60;;;;;;;-145.68;65.19;73919.56;10396869;28;20318;-65
2023/07/18 05:33:54;;;;;;;1.75;1.65;;;;;;;-145.68;62.82;73813.63;10395207;28;20209;-66
2023/07/18 05:38:54;;;;;;;2.15;1.58;;;;;;;-145.68;60.14;73769.63;10383271;28;20273;-66
2023/07/18 05:43:54;;;;;;;2.92;1.70;;;;;;;-145.68;58.33;73727.66;10376115;28;20221;-66
2023/07/18 05:48:55;;;;;;;3.50;2.05;;;;;;;-145.68;56.55;73673.69;10375904;28;20619;-65
2023/07/18 05:53:56;;;;;;;3.75;1.63;;;;;;;-145.68;53.74;73631.72;10375706;28;20637;-66
2023/07/18 05:58:56;;;;;;;3.30;1.70;;;;;;;-145.68;52.59;73573.75;10375583;28;20225;-66
2023/07/18 06:03:57;;;;;;;2.63;1.77;;;;;;;-145.68;49.79;73505.78;10375302;28;20320;-66
2023/07/18 06:08:58;;;;;;;4.32;1.77;;;;;;;-145.68;48.52;73473.81;10375079;28;20268;-67
2023/07/18 06:13:59;;;;;;;3.47;1.60;;;;;;;-145.68;48.42;73497.78;10374888;28;20752;-66
2023/07/18 06:18:59;;;;;;;2.53;1.80;;;;;;;-145.68;47.95;73463.81;10380234;28;20250;-66
2023/07/18 06:24:00;;;;;;;1.60;1.50;;;;;;;-145.68;44.45;73419.84;10393015;28;20243;-66
2023/07/18 06:29:00;;;;;;;4.38;1.70;;;;;;;-145.68;43.78;73379.88;10381631;28;20220;-66
2023/07/18 06:34:01;;;;;;;2.03;1.60;;;;;;;-145.68;41.77;73156.00;10406059;28;20205;-64
2023/07/18 06:39:01;;;;;;;2.47;1.65;;;;;;;-145.68;40.80;73040.09;10415077;28;20219;-65
2023/07/18 06:44:04;;;;;;;2.47;1.60;;;;;;;-145.68;38.76;72912.19;10414617;28;20224;-65
2023/07/18 06:49:05;;;;;;;2.13;1.45;;;;;;;-145.68;40.47;73162.00;10414469;28;20559;-64
2023/07/18 06:54:05;;;;;;;1.92;1.30;;;;;;;-145.68;39.74;72968.16;10414371;28;20228;-64
2023/07/18 06:59:06;;;;;;;2.28;1.48;;;;;;;-145.68;39.00;72936.19;10410932;28;20441;-64
2023/07/18 07:04:06;;;;;;;6.00;1.60;;;;;;;-145.68;40.94;73144.03;10363850;28;20229;-63
2023/07/18 07:09:08;;;;;;;4.55;1.55;;;;;;;-145.68;40.48;73166.00;10355462;28;20609;-65
2023/07/18 07:14:09;;;;;;;2.40;1.48;;;;;;;-145.68;40.01;73040.09;10375642;28;20209;-65
2023/07/18 07:19:09;;;;;;;1.50;1.20;;;;;;;-145.68;38.98;72944.16;10379705;28;20208;-63
2023/07/18 07:24:10;;;;;;;2.03;1.70;;;;;;;-145.68;38.42;72848.25;10391275;28;20225;-63
2023/07/18 07:29:10;;;;;;;2.38;1.38;;;;;;;-145.68;37.62;72814.28;10369603;28;20198;-63
2023/07/18 07:34:11;;;;;;;3.72;1.30;;;;;;;-145.68;35.67;72628.41;10367652;28;20205;-63
2023/07/18 07:39:12;;;;;;;2.47;1.60;;;;;;;-145.68;38.50;72932.19;10373702;28;20178;-62
2023/07/18 07:44:12;;;;;;;1.45;1.35;;;;;;;-145.68;37.38;72754.31;10371446;28;20284;-63
2023/07/18 07:49:13;;;;;;;1.83;1.50;;;;;;;-145.68;36.79;72670.38;10375629;28;20750;-62
2023/07/18 07:54:13;;;;;;;4.15;1.55;;;;;;;-145.68;34.78;72486.53;10397066;28;21007;-63
2023/07/18 07:59:13;;;;;;;1.60;1.50;;;;;;;-145.68;35.27;72578.47;10395985;28;20196;-63
2023/07/18 08:04:14;;;;;;;2.00;1.50;;;;;;;-145.68;35.91;72604.44;10378412;28;20706;-64
2023/07/18 08:09:15;;;;;;;2.42;1.48;;;;;;;-145.68;36.05;72672.38;10385398;28;20185;-63
2023/07/18 08:14:15;;;;;;;1.70;1.20;;;;;;;-145.68;34.86;72526.50;10393844;28;20201;-63
2023/07/18 08:19:15;;;;;;;7.03;1.67;;;;;;;-145.68;33.92;72616.44;10410098;28;20206;-63
2023/07/18 08:24:17;;;;;;;1.83;1.45;;;;;;;-145.68;36.30;72808.28;10379038;28;20249;-63
2023/07/18 08:29:17;;;;;;;2.78;1.30;;;;;;;-145.68;34.47;72536.50;10410171;28;20189;-64
2023/07/18 08:34:17;;;;;;;4.35;1.52;;;;;;;-145.68;32.08;72372.63;10328190;28;20220;-63
2023/07/18 08:39:18;;;;;;;2.75;1.50;;;;;;;-145.68;32.89;72450.56;10328672;28;20671;-63
2023/07/18 08:44:19;;;;;;;2.35;1.42;;;;;;;-145.68;32.61;72406.59;10375125;28;20295;-63
2023/07/18 08:49:21;;;;;;;4.22;1.60;;;;;;;-145.68;31.60;72322.69;10351615;28;20220;-63
2023/07/18 08:54:21;;;;;;;3.67;1.60;;;;;;;-145.68;32.71;72452.56;10368582;28;20320;-63
2023/07/18 08:59:22;;;;;;;6.10;1.60;;;;;;;-145.68;32.12;72330.66;10376202;28;20384;-63
2023/07/18 09:04:22;;;;;;;2.25;1.63;;;;;;;-145.68;32.09;72338.66;10376249;28;20217;-64
2023/07/18 09:09:23;;;;;;;3.97;1.80;;;;;;;-145.68;31.62;72250.75;10375954;28;20224;-63
2023/07/18 09:14:31;;;;;;;2.25;1.50;;;;;;;-145.68;33.96;72464.56;10374541;28;20225;-63
2023/07/18 09:19:38;;;;;;;5.50;1.52;;;;;;;-145.68;35.32;72672.38;10375353;28;20288;-63
2023/07/18 09:24:39;;;;;;;2.40;1.88;;;;;;;-145.68;36.34;72752.31;10356457;28;20216;-62
2023/07/18 09:29:45;;;;;;;2.50;1.60;;;;;;;-145.68;35.78;72714.34;10374859;28;20197;-63
2023/07/18 09:34:56;;;;;;;3.30;1.70;;;;;;;-145.68;36.26;72722.34;10370999;28;20613;-62
2023/07/18 09:39:56;;;;;;;3.63;1.90;;;;;;;-145.68;35.96;72730.34;10368612;28;20204;-62
2023/07/18 09:44:57;;;;;;;3.28;1.50;;;;;;;-145.68;35.60;72652.41;10369496;28;20236;-63
2023/07/18 09:49:57;;;;;;;3.28;1.55;;;;;;;-145.68;34.78;72532.50;10374545;28;20251;-63
2023/07/18 09:54:58;;;;;;;5.43;1.70;;;;;;;-145.68;34.12;72476.53;10373702;28;20229;-63
2023/07/18 10:00:01;;;;;;;6.65;1.60;;;;;;;-145.68;32.82;72360.66;10356763;28;20200;-63
2023/07/18 10:05:05;;;;;;;2.70;1.50;;;;;;;-145.68;31.77;72242.75;10372379;28;20225;-64
2023/07/18 10:10:10;;;;;;;1.98;1.55;;;;;;;-145.68;31.82;72172.81;10373485;28;20185;-63
2023/07/18 10:15:10;;;;;;;4.38;1.60;;;;;;;-145.68;30.82;72124.88;10373759;28;20208;-64
2023/07/18 10:20:24;;;;;;;2.47;1.50;;;;;;;-145.68;30.64;72098.88;10371905;28;20204;-66
2023/07/18 10:25:31;;;;;;;4.38;1.70;;;;;;;-145.68;31.67;72230.75;10376132;28;20244;-65
2023/07/18 10:30:41;;;;;;;6.30;1.85;;;;;;;-145.68;31.38;72116.88;10387666;28;20573;-62
2023/07/18 10:35:41;;;;;;;2.72;1.58;;;;;;;-145.68;30.66;72098.88;10332414;28;20218;-64
2023/07/18 10:40:43;;;;;;;3.05;1.80;;;;;;;-145.68;32.45;72420.59;10331907;28;20668;-63
2023/07/18 10:45:44;;;;;;;3.70;1.85;;;;;;;-145.68;32.13;72246.75;10331748;28;20317;-62
2023/07/18 10:50:47;;;;;;;4.72;1.88;;;;;;;-145.68;30.29;72114.88;10353253;28;20676;-64
2023/07/18 10:55:47;;;;;;;3.55;1.60;;;;;;;-145.68;31.31;72338.66;10383074;28;20268;-64
2023/07/18 11:00:49;;;;;;;5.05;1.85;;;;;;;-145.68;31.39;72272.72;10435500;22;20243;-68
2023/07/18 11:05:51;;;;;;;2.92;1.80;;;;;;;-145.68;29.01;71835.16;10409772;28;20674;-70
2023/07/18 11:10:58;;;;;;;3.40;1.73;;;;;;;-145.68;28.64;71795.19;10388532;28;20213;-69
2023/07/18 11:16:16;;;;;;;1.92;1.50;;;;;;;-145.68;27.37;71587.41;10424319;28;20189;-67
2023/07/18 11:21:18;;;;;;;5.20;1.92;;;;;;;-145.68;30.06;72046.94;10413215;28;20585;-69
2023/07/18 11:26:18;;;;;;;3.67;1.73;;;;;;;-145.68;29.51;71895.09;10411187;28;20258;-69
2023/07/18 11:31:39;;;;;;;3.05;1.58;;;;;;;-145.68;29.27;71825.16;10411826;28;20254;-69
2023/07/18 11:36:40;;;;;;;2.25;1.63;;;;;;;-145.68;28.16;71669.31;10411500;28;20219;-69
2023/07/18 11:41:40;;;;;;;5.72;1.77;;;;;;;-145.68;27.10;71499.50;10411645;28;20768;-68
2023/07/18 11:46:42;;;;;;;9.57;2.08;;;;;;;-145.68;28.89;71935.03;10411206;28;20865;-69
2023/07/18 11:51:43;;;;;;;3.08;1.90;;;;;;;-145.68;30.04;71957.03;10411119;28;20212;-69
2023/07/18 11:56:43;;;;;;;2.22;1.60;;;;;;;-145.68;29.01;71921.06;10409562;28;20560;-68
2023/07/18 12:01:43;;;;;;;2.57;1.63;;;;;;;-145.68;29.97;71989.00;10410255;28;20328;-68
2023/07/18 12:06:44;;;;;;;4.23;1.73;;;;;;;-145.68;30.36;72134.84;10410429;28;20451;-68
2023/07/18 12:11:44;;;;;;;3.67;1.63;;;;;;;-145.68;29.37;71829.16;10409856;28;20541;-69
2023/07/18 12:16:44;;;;;;;7.17;1.67;;;;;;;-145.68;27.84;71661.31;10410459;28;20655;-69
2023/07/18 12:21:46;;;;;;;2.35;1.50;;;;;;;-145.68;27.66;71579.41;10410003;28;20879;-68
2023/07/18 12:26:46;;;;;;;3.42;1.80;;;;;;;-145.68;28.13;71535.47;10398557;28;20196;-69
2023/07/18 12:31:51;;;;;;;4.07;1.42;;;;;;;-145.68;29.24;71951.03;10384832;28;20223;-68
2023/07/18 12:36:52;;;;;;;2.42;1.90;;;;;;;-145.68;30.21;71996.97;10397019;28;20204;-69
2023/07/18 12:41:52;;;;;;;3.15;1.85;;;;;;;-145.68;30.25;71996.97;10395103;28;20223;-69
2023/07/18 12:46:52;;;;;;;4.23;1.70;;;;;;;-145.68;28.92;71873.09;10396040;28;20243;-68
2023/07/18 12:51:53;;;;;;;2.40;1.83;;;;;;;-145.68;28.13;71593.41;10413553;28;20451;-69
2023/07/18 12:56:53;;;;;;;3.08;1.70;;;;;;;-145.68;28.05;71567.44;10416539;28;20212;-70
2023/07/18 13:01:57;;;;;;;7.40;2.15;;;;;;;-145.68;28.60;71593.41;10417354;28;20236;-69
2023/07/18 13:06:58;;;;;;;3.28;1.98;;;;;;;-145.68;27.16;71443.56;10399844;28;20614;-69
2023/07/18 13:12:01;;;;;;;2.20;1.63;;;;;;;-145.68;27.34;71483.53;10416927;28;20208;-69
2023/07/18 13:17:01;;;;;;;3.20;1.77;;;;;;;-145.68;28.42;71743.25;10417162;28;20360;-70
2023/07/18 13:22:02;;;;;;;4.53;2.00;;;;;;;-145.68;28.51;71717.28;10416748;28;20224;-70
2023/07/18 13:27:02;;;;;;;3.97;1.67;;;;;;;-145.68;28.21;71747.25;10416639;28;20435;-69
2023/07/18 13:32:03;;;;;;;5.68;1.80;;;;;;;-145.68;29.75;71855.13;10415171;28;20220;-69
2023/07/18 13:37:04;;;;;;;3.67;1.83;;;;;;;-145.68;29.62;71867.13;10415769;28;20188;-69
2023/07/18 13:42:05;;;;;;;3.28;1.85;;;;;;;-145.68;30.03;71875.09;10392122;28;20209;-69
2023/07/18 13:47:05;;;;;;;2.65;2.00;;;;;;;-145.68;30.24;71929.06;10395220;28;20187;-70
2023/07/18 13:52:06;;;;;;;2.83;1.92;;;;;;;-145.68;28.24;71621.38;10405519;28;20239;-69
2023/07/18 13:57:07;;;;;;;5.10;1.77;;;;;;;-145.68;29.06;71801.19;10413796;28;20200;-69
2023/07/18 14:02:09;;;;;;;6.03;2.00;;;;;;;-145.68;29.08;71789.19;10413574;28;20239;-69
2023/07/18 14:07:09;;;;;;;3.10;1.83;;;;;;;-145.68;28.70;71773.22;10414922;28;20447;-69
2023/07/18 14:12:10;;;;;;;3.20;1.98;;;;;;;-145.68;28.08;71579.41;10414571;28;20582;-69
2023/07/18 14:17:10;;;;;;;4.80;1.80;;;;;;;-145.68;28.31;71637.34;10413571;28;20189;-69
2023/07/18 14:22:15;;;;;;;3.13;2.13;;;;;;;-145.68;28.70;71671.31;10413123;28;20303;-70
2023/07/18 14:27:16;;;;;;;2.22;1.98;;;;;;;-145.68;28.70;71605.38;10413217;28;20475;-69
2023/07/18 14:32:16;;;;;;;4.90;1.90;;;;;;;-145.68;26.77;71331.69;10413405;28;20200;-69
2023/07/18 14:37:16;;;;;;;6.13;2.17;;;;;;;-145.68;25.77;71235.81;10411616;28;20196;-70
2023/07/18 14:42:17;;;;;;;3.67;1.60;;;;;;;-145.68;25.37;71119.94;10411321;28;20540;-70
2023/07/18 14:47:18;;;;;;;5.00;2.03;;;;;;;-145.68;24.23;70860.25;10412815;28;20426;-70
2023/07/18 14:52:18;;;;;;;4.28;1.67;;;;;;;-145.68;24.73;70994.09;10412202;28;20262;-71
2023/07/18 14:57:19;;;;;;;1.80;1.57;;;;;;;-145.68;24.97;70968.13;10412223;28;20245;-70
2023/07/18 15:02:20;;;;;;;3.90;1.88;;;;;;;-145.68;24.38;70878.25;10411363;28;20489;-71
2023/07/18 15:07:20;;;;;;;8.70;2.08;;;;;;;-145.68;23.76;70848.28;10410806;28;20199;-70
2023/07/18 15:12:21;;;;;;;4.10;2.00;;;;;;;-145.68;24.54;71099.97;10411558;28;20224;-70
2023/07/18 15:17:21;;;;;;;2.72;2.08;;;;;;;-145.68;23.79;70848.28;10411359;28;20973;-70
2023/07/18 15:22:21;;;;;;;2.63;1.83;;;;;;;-145.68;25.18;71195.84;10411157;28;20231;-70
2023/07/18 15:27:22;;;;;;;2.83;1.77;;;;;;;-145.68;25.38;71149.91;10411380;28;20933;-69
2023/07/18 15:32:22;;;;;;;5.57;1.87;;;;;;;-145.68;25.02;71030.06;10410208;28;21038;-69
2023/07/18 15:37:24;;;;;;;2.17;1.67;;;;;;;-145.68;24.24;70786.34;10405195;28;20449;-70
2023/07/18 15:42:24;;;;;;;3.17;1.60;;;;;;;-145.68;25.56;71085.97;10390321;28;20532;-69
2023/07/18 15:47:25;;;;;;;3.25;2.10;;;;;;;-145.68;24.78;71034.03;10384116;28;20247;-69
2023/07/18 15:52:27;;;;;;;2.55;1.60;;;;;;;-145.68;25.82;71167.88;10369843;28;20274;-70
2023/07/18 15:57:28;;;;;;;4.57;1.58;;;;;;;-145.68;25.12;71078.00;10375155;28;20184;-70
2023/07/18 16:02:28;;;;;;;3.10;1.75;;;;;;;-145.68;25.76;71139.91;10390180;28;20730;-70
2023/07/18 16:07:29;;;;;;;3.27;1.80;;;;;;;-145.68;26.68;71373.66;10372655;28;20193;-70
2023/07/18 16:12:29;;;;;;;2.75;1.75;;;;;;;-145.68;27.88;71487.50;10370681;28;20993;-69
2023/07/18 16:17:29;;;;;;;3.45;1.92;;;;;;;-145.68;27.65;71499.50;10370566;28;20197;-69
2023/07/18 16:22:30;;;;;;;3.17;2.03;;;;;;;-145.68;27.39;71531.47;10384353;28;20216;-69
2023/07/18 16:27:32;;;;;;;4.90;1.88;;;;;;;-145.68;29.59;71805.19;10389885;28;20455;-69
2023/07/18 16:32:32;;;;;;;3.35;1.73;;;;;;;-145.68;30.24;71857.13;10389149;28;20208;-69
2023/07/18 16:37:33;;;;;;;5.97;2.00;;;;;;;-145.68;30.38;71899.09;10390722;28;20667;-69
2023/07/18 16:42:33;;;;;;;2.40;1.50;;;;;;;-145.68;30.25;71857.13;10389793;28;20851;-70
2023/07/18 16:47:33;;;;;;;4.87;1.90;;;;;;;-145.68;31.69;71967.00;10405617;28;20797;-70
2023/07/18 16:52:34;;;;;;;6.22;1.75;;;;;;;-145.68;31.62;71979.00;10411852;28;20851;-70
2023/07/18 16:57:34;;;;;;;5.25;2.08;;;;;;;-145.68;32.07;72036.94;10410443;28;20276;-70
2023/07/18 17:02:34;;;;;;;3.17;1.90;;;;;;;-145.68;31.85;72044.94;10400697;22;20248;-65
2023/07/18 17:07:35;;;;;;;4.53;2.03;;;;;;;-145.68;32.67;72096.88;10368845;28;20539;-66
2023/07/18 17:12:36;;;;;;;4.32;1.80;;;;;;;-145.68;32.92;72152.84;10369308;28;20220;-65
2023/07/18 17:17:38;;;;;;;2.13;1.58;;;;;;;-145.68;32.77;72160.81;10372308;28;20225;-65
2023/07/18 17:22:38;;;;;;;8.25;2.20;;;;;;;-145.68;33.38;72184.81;10376069;28;20344;-65
2023/07/18 17:27:39;;;;;;;4.38;1.95;;;;;;;-145.68;33.00;72188.81;10376617;28;20681;-63
2023/07/18 17:32:39;;;;;;;6.40;2.03;;;;;;;-145.68;34.12;72290.72;10375681;28;20209;-64
2023/07/18 17:37:40;;;;;;;6.80;1.75;;;;;;;-145.68;33.84;72268.72;10375688;28;20200;-64
2023/07/18 17:42:41;;;;;;;3.47;1.73;;;;;;;-145.68;33.33;72262.72;10375168;28;20221;-64
2023/07/18 17:47:46;;;;;;;6.00;1.80;;;;;;;-145.68;33.99;72296.69;10375133;28;20213;-64
2023/07/18 17:52:46;;;;;;;2.20;1.58;;;;;;;-145.68;34.38;72308.69;10375590;28;20213;-64
2023/07/18 17:57:47;;;;;;;3.70;1.77;;;;;;;-145.68;34.43;72318.69;10374752;28;20197;-62
2023/07/18 18:02:47;;;;;;;4.10;2.20;;;;;;;-145.68;34.44;72328.69;10374482;28;20773;-64
2023/07/18 18:07:48;;;;;;;1.92;1.30;;;;;;;-145.68;34.76;72344.66;10374427;28;20200;-63
2023/07/18 18:12:48;;;;;;;4.60;2.03;;;;;;;-145.68;34.82;72380.63;10374032;28;20344;-62
2023/07/18 18:17:49;;;;;;;4.18;2.00;;;;;;;-145.68;35.29;72430.59;10374009;28;20189;-64
2023/07/18 18:22:49;;;;;;;4.97;1.73;;;;;;;-145.68;35.70;72460.56;10373714;28;20233;-63
2023/07/18 18:27:49;;;;;;;5.85;1.70;;;;;;;-145.68;35.83;72478.53;10373252;28;20197;-63
2023/07/18 18:32:50;;;;;;;4.72;2.00;;;;;;;-145.68;36.27;72514.50;10373462;28;20205;-63
2023/07/18 18:37:50;;;;;;;4.13;1.90;;;;;;;-145.68;37.15;72540.50;10375474;28;20188;-63
2023/07/18 18:42:51;;;;;;;2.17;1.70;;;;;;;-145.68;37.68;72582.44;10412638;28;20208;-64
2023/07/18 18:47:51;;;;;;;2.20;1.70;;;;;;;-145.68;38.40;72630.41;10412773;28;20191;-63
2023/07/18 18:52:51;;;;;;;3.20;1.88;;;;;;;-145.68;39.30;72648.41;10412285;28;20243;-63
2023/07/18 18:57:52;;;;;;;5.43;2.42;;;;;;;-145.68;40.31;72714.34;10412105;28;20685;-63
2023/07/18 19:02:53;;;;;;;3.10;2.03;;;;;;;-145.68;42.63;72864.22;10411867;28;20347;-64
2023/07/18 19:07:53;;;;;;;3.85;2.05;;;;;;;-145.68;44.08;72984.13;10402515;28;20197;-64
2023/07/18 19:12:54;;;;;;;4.20;2.03;;;;;;;-145.68;44.77;72956.16;10371897;28;20651;-64
2023/07/18 19:17:54;;;;;;;3.47;2.17;;;;;;;-145.68;45.65;73028.09;10371473;28;20197;-64
2023/07/18 19:22:54;;;;;;;4.95;2.40;;;;;;;-145.68;47.14;73104.06;10371381;28;20581;-64
2023/07/18 19:27:55;;;;;;;4.47;2.13;;;;;;;-145.68;47.18;73116.03;10370902;28;20288;-63
2023/07/18 19:32:55;;;;;;;2.60;2.13;;;;;;;-145.68;48.26;73162.00;10371166;28;20209;-63
2023/07/18 19:37:55;;;;;;;4.78;2.20;;;;;;;-145.68;48.37;73162.00;10370516;28;20235;-63
2023/07/18 19:42:56;;;;;;;3.05;2.08;;;;;;;-145.68;49.06;73200.00;10370191;28;20304;-64
2023/07/18 19:47:56;;;;;;;5.47;2.35;;;;;;;-145.68;49.98;73219.97;10371009;28;20201;-64
2023/07/18 19:52:57;;;;;;;3.35;2.10;;;;;;;-145.68;50.06;73225.97;10370529;28;20197;-63
2023/07/18 19:57:57;;;;;;;4.28;2.05;;;;;;;-145.68;49.96;73229.97;10370985;28;20201;-63
2023/07/18 20:02:57;;;;;;;2.53;1.90;;;;;;;-145.68;50.44;73251.94;10370023;28;20229;-63
2023/07/18 20:07:58;;;;;;;4.28;2.20;;;;;;;-145.68;51.16;73271.94;10370534;28;20248;-63
2023/07/18 20:12:58;;;;;;;3.85;2.35;;;;;;;-145.68;51.54;73267.94;10370004;28;20209;-63
2023/07/18 20:17:59;;;;;;;4.50;2.40;;;;;;;-145.68;51.91;73291.94;10369981;28;20193;-64
2023/07/18 20:22:59;;;;;;;2.65;2.22;;;;;;;-145.68;51.82;73299.91;10369802;28;20307;-62
2023/07/18 20:28:00;;;;;;;5.75;3.22;;;;;;;-145.68;51.41;73291.94;10369901;28;20239;-63
2023/07/18 20:33:01;;;;;;;7.35;3.15;;;;;;;-145.68;50.76;73285.94;10370260;28;20247;-63
2023/07/18 20:38:02;;;;;;;3.63;2.58;;;;;;;-145.68;50.63;73295.94;10370036;28;20665;-62
2023/07/18 20:43:04;;;;;;;5.25;2.10;;;;;;;-145.68;50.81;73293.94;10369740;28;20328;-63
2023/07/18 20:48:04;;;;;;;4.35;2.55;;;;;;;-145.68;51.31;73323.91;10369753;28;20197;-63
2023/07/18 20:53:04;;;;;;;7.00;2.70;;;;;;;-145.68;50.93;73319.91;10374895;28;20204;-62
2023/07/18 20:58:05;;;;;;;3.58;2.20;;;;;;;-145.68;51.12;73327.91;10377840;28;20254;-63
2023/07/18 21:03:05;;;;;;;2.25;1.88;;;;;;;-145.68;51.13;73337.91;10377089;28;20236;-61
2023/07/18 21:08:06;;;;;;;3.63;2.35;;;;;;;-145.68;51.91;73367.88;10376957;28;20268;-63
2023/07/18 21:13:06;;;;;;;4.75;2.08;;;;;;;-145.68;52.19;73371.88;10377121;28;20212;-63
2023/07/18 21:18:06;;;;;;;2.50;2.00;;;;;;;-145.68;52.53;73385.88;10376837;28;20695;-62
2023/07/18 21:23:07;;;;;;;5.90;2.17;;;;;;;-145.68;52.45;73395.84;10376394;28;20699;-63
2023/07/18 21:28:07;;;;;;;3.85;2.25;;;;;;;-145.68;52.69;73401.84;10376566;28;20587;-62
2023/07/18 21:33:08;;;;;;;4.05;2.13;;;;;;;-145.68;52.88;73401.84;10376396;28;20217;-63
2023/07/18 21:38:08;;;;;;;2.45;1.83;;;;;;;-145.68;53.31;73433.84;10376314;28;20571;-63
2023/07/18 21:43:09;;;;;;;3.78;2.10;;;;;;;-145.68;53.34;73437.84;10375680;28;20217;-64
2023/07/18 21:48:09;;;;;;;8.38;2.13;;;;;;;-145.68;53.84;73463.81;10375781;28;20235;-64
2023/07/18 21:53:12;;;;;;;3.13;2.25;;;;;;;-145.68;54.38;73475.81;10375733;28;20202;-65
2023/07/18 21:58:12;;;;;;;5.22;1.95;;;;;;;-145.68;54.58;73487.81;10375481;28;20190;-64
2023/07/18 22:03:12;;;;;;;4.82;1.90;;;;;;;-145.68;54.79;73479.81;10374333;28;20283;-65
2023/07/18 22:08:13;;;;;;;2.75;1.95;;;;;;;-145.68;54.74;73479.81;10374884;28;20679;-65
2023/07/18 22:13:16;;;;;;;3.22;1.92;;;;;;;-145.68;55.06;73481.81;10374806;28;20292;-64
2023/07/18 22:18:17;;;;;;;3.45;1.90;;;;;;;-145.68;55.44;73503.78;10374951;28;20680;-65
2023/07/18 22:23:17;;;;;;;4.30;2.13;;;;;;;-145.68;56.04;73513.78;10374395;28;20233;-65
2023/07/18 22:28:18;;;;;;;4.97;2.15;;;;;;;-145.68;56.34;73519.78;10374517;28;20185;-65
2023/07/18 22:33:18;;;;;;;6.43;2.40;;;;;;;-145.68;56.71;73535.78;10374002;28;20215;-65
2023/07/18 22:38:19;;;;;;;7.00;2.30;;;;;;;-145.68;57.12;73545.78;10385053;28;20193;-64
2023/07/18 22:43:19;;;;;;;5.68;3.00;;;;;;;-145.68;57.39;73551.75;10373478;28;20232;-65
2023/07/18 22:48:21;;;;;;;3.50;1.98;;;;;;;-145.68;57.73;73561.75;10373461;28;20193;-64